sensor_id;sensor_type;location;lat;lon;timestamp;temperature;humidity
33717;DHT22;20046;50.746;7.072;2022-07-30T00:01:57;18.20;99.90
33717;DHT22;20046;50.746;7.072;2022-07-30T00:04:23;18.20;99.90
33717;DHT22;20046;50.746;7.072;2022-07-30T00:06:49;18.20;99.90
33717;DHT22;20046;50.746;7.072;2022-07-30T00:09:15;18.20;99.90
33717;DHT22;20046;50.746;7.072;2022-07-30T00:11:40;18.20;99.90
33717;DHT22;20046;50.746;7.072;2022-07-30T00:14:07;18.20;99.90
33717;DHT22;20046;50.746;7.072;2022-07-30T00:16:33;18.10;99.90
33717;DHT22;20046;50.746;7.072;2022-07-30T00:18:58;18.10;99.90
33717;DHT22;20046;50.746;7.072;2022-07-30T00:21:24;18.10;99.90
33717;DHT22;20046;50.746;7.072;2022-07-30T00:23:49;18.00;99.90
33717;DHT22;20046;50.746;7.072;2022-07-30T00:26:15;18.00;99.90
33717;DHT22;20046;50.746;7.072;2022-07-30T00:28:41;18.00;99.90
33717;DHT22;20046;50.746;7.072;2022-07-30T00:31:06;17.90;99.90
33717;DHT22;20046;50.746;7.072;2022-07-30T00:33:32;17.90;99.90
33717;DHT22;20046;50.746;7.072;2022-07-30T00:35:57;17.80;99.90
33717;DHT22;20046;50.746;7.072;2022-07-30T00:38:23;17.80;99.90
33717;DHT22;20046;50.746;7.072;2022-07-30T00:40:49;17.80;99.90
33717;DHT22;20046;50.746;7.072;2022-07-30T00:43:15;17.70;99.90
33717;DHT22;20046;50.746;7.072;2022-07-30T00:45:42;17.70;99.90
33717;DHT22;20046;50.746;7.072;2022-07-30T00:48:09;17.60;99.90
33717;DHT22;20046;50.746;7.072;2022-07-30T00:50:36;17.60;99.90
33717;DHT22;20046;50.746;7.072;2022-07-30T00:53:02;17.50;99.90
33717;DHT22;20046;50.746;7.072;2022-07-30T00:55:27;17.50;99.90
33717;DHT22;20046;50.746;7.072;2022-07-30T00:57:53;17.40;99.90
33717;DHT22;20046;50.746;7.072;2022-07-30T01:00:19;17.40;99.90
33717;DHT22;20046;50.746;7.072;2022-07-30T01:02:45;17.40;99.90
33717;DHT22;20046;50.746;7.072;2022-07-30T01:05:11;17.30;99.90
33717;DHT22;20046;50.746;7.072;2022-07-30T01:07:37;17.30;99.90
33717;DHT22;20046;50.746;7.072;2022-07-30T01:10:05;17.30;99.90
33717;DHT22;20046;50.746;7.072;2022-07-30T01:12:32;17.30;99.90
33717;DHT22;20046;50.746;7.072;2022-07-30T01:15:00;17.20;99.90
33717;DHT22;20046;50.746;7.072;2022-07-30T01:17:27;17.10;99.90
33717;DHT22;20046;50.746;7.072;2022-07-30T01:19:56;17.10;99.90
33717;DHT22;20046;50.746;7.072;2022-07-30T01:22:28;17.00;99.90
33717;DHT22;20046;50.746;7.072;2022-07-30T01:27:55;17.00;99.90
33717;DHT22;20046;50.746;7.072;2022-07-30T01:30:26;16.90;99.90
33717;DHT22;20046;50.746;7.072;2022-07-30T01:32:53;16.90;99.90
33717;DHT22;20046;50.746;7.072;2022-07-30T01:35:23;16.90;99.90
33717;DHT22;20046;50.746;7.072;2022-07-30T01:37:51;16.90;99.90
33717;DHT22;20046;50.746;7.072;2022-07-30T01:40:18;16.80;99.90
33717;DHT22;20046;50.746;7.072;2022-07-30T01:42:47;16.80;99.90
33717;DHT22;20046;50.746;7.072;2022-07-30T01:45:13;16.80;99.90
33717;DHT22;20046;50.746;7.072;2022-07-30T01:47:41;16.80;99.90
33717;DHT22;20046;50.746;7.072;2022-07-30T01:50:11;16.80;99.90
33717;DHT22;20046;50.746;7.072;2022-07-30T01:52:40;16.80;99.90
33717;DHT22;20046;50.746;7.072;2022-07-30T01:55:07;16.80;99.90
33717;DHT22;20046;50.746;7.072;2022-07-30T01:57:40;16.80;99.90
33717;DHT22;20046;50.746;7.072;2022-07-30T02:00:07;16.80;99.90
33717;DHT22;20046;50.746;7.072;2022-07-30T02:02:36;16.80;99.90
33717;DHT22;20046;50.746;7.072;2022-07-30T02:05:04;16.70;99.90
33717;DHT22;20046;50.746;7.072;2022-07-30T02:07:39;16.70;99.90
33717;DHT22;20046;50.746;7.072;2022-07-30T02:10:13;16.70;99.90
33717;DHT22;20046;50.746;7.072;2022-07-30T02:12:48;16.70;99.90
33717;DHT22;20046;50.746;7.072;2022-07-30T02:15:40;16.70;99.90
33717;DHT22;20046;50.746;7.072;2022-07-30T02:18:13;16.80;99.90
33717;DHT22;20046;50.746;7.072;2022-07-30T02:20:43;16.80;99.90
33717;DHT22;20046;50.746;7.072;2022-07-30T02:23:11;16.80;99.90
33717;DHT22;20046;50.746;7.072;2022-07-30T02:25:42;16.80;99.90
33717;DHT22;20046;50.746;7.072;2022-07-30T02:28:10;16.90;99.90
33717;DHT22;20046;50.746;7.072;2022-07-30T02:30:43;16.90;99.90
33717;DHT22;20046;50.746;7.072;2022-07-30T02:33:11;16.90;99.90
33717;DHT22;20046;50.746;7.072;2022-07-30T02:35:39;16.90;99.90
33717;DHT22;20046;50.746;7.072;2022-07-30T02:38:05;17.00;99.90
33717;DHT22;20046;50.746;7.072;2022-07-30T02:40:32;17.00;99.90
33717;DHT22;20046;50.746;7.072;2022-07-30T02:42:58;17.00;99.90
33717;DHT22;20046;50.746;7.072;2022-07-30T02:45:26;17.00;99.90
33717;DHT22;20046;50.746;7.072;2022-07-30T02:48:01;17.00;99.90
33717;DHT22;20046;50.746;7.072;2022-07-30T02:50:28;17.00;99.90
33717;DHT22;20046;50.746;7.072;2022-07-30T02:52:55;17.00;99.90
33717;DHT22;20046;50.746;7.072;2022-07-30T02:55:24;17.00;99.90
33717;DHT22;20046;50.746;7.072;2022-07-30T02:57:52;17.00;99.90
33717;DHT22;20046;50.746;7.072;2022-07-30T03:00:18;17.00;99.90
33717;DHT22;20046;50.746;7.072;2022-07-30T03:02:45;16.90;99.90
33717;DHT22;20046;50.746;7.072;2022-07-30T03:05:13;16.90;99.90
33717;DHT22;20046;50.746;7.072;2022-07-30T03:07:39;16.80;99.90
33717;DHT22;20046;50.746;7.072;2022-07-30T03:10:06;16.80;99.90
33717;DHT22;20046;50.746;7.072;2022-07-30T03:12:33;16.80;99.90
33717;DHT22;20046;50.746;7.072;2022-07-30T03:15:00;16.80;99.90
33717;DHT22;20046;50.746;7.072;2022-07-30T03:17:27;16.80;99.90
33717;DHT22;20046;50.746;7.072;2022-07-30T03:19:56;16.70;99.90
33717;DHT22;20046;50.746;7.072;2022-07-30T03:22:24;16.70;99.90
33717;DHT22;20046;50.746;7.072;2022-07-30T03:24:52;16.60;99.90
33717;DHT22;20046;50.746;7.072;2022-07-30T03:27:19;16.50;99.90
33717;DHT22;20046;50.746;7.072;2022-07-30T03:29:47;16.50;99.90
33717;DHT22;20046;50.746;7.072;2022-07-30T03:32:14;16.40;99.90
33717;DHT22;20046;50.746;7.072;2022-07-30T03:34:40;16.30;99.90
33717;DHT22;20046;50.746;7.072;2022-07-30T03:37:07;16.30;99.90
33717;DHT22;20046;50.746;7.072;2022-07-30T03:39:34;16.40;99.90
33717;DHT22;20046;50.746;7.072;2022-07-30T03:42:01;16.30;99.90
33717;DHT22;20046;50.746;7.072;2022-07-30T03:44:28;16.40;99.90
33717;DHT22;20046;50.746;7.072;2022-07-30T03:46:54;16.40;99.90
33717;DHT22;20046;50.746;7.072;2022-07-30T03:49:22;16.30;99.90
33717;DHT22;20046;50.746;7.072;2022-07-30T03:51:49;16.30;99.90
33717;DHT22;20046;50.746;7.072;2022-07-30T03:54:15;16.30;99.90
33717;DHT22;20046;50.746;7.072;2022-07-30T03:56:41;16.30;99.90
33717;DHT22;20046;50.746;7.072;2022-07-30T03:59:07;16.30;99.90
33717;DHT22;20046;50.746;7.072;2022-07-30T04:01:33;16.30;99.90
33717;DHT22;20046;50.746;7.072;2022-07-30T04:04:06;16.30;99.90
33717;DHT22;20046;50.746;7.072;2022-07-30T04:06:33;16.30;99.90
33717;DHT22;20046;50.746;7.072;2022-07-30T04:09:13;16.30;99.90
33717;DHT22;20046;50.746;7.072;2022-07-30T04:11:38;16.30;99.90
33717;DHT22;20046;50.746;7.072;2022-07-30T04:14:04;16.20;99.90
33717;DHT22;20046;50.746;7.072;2022-07-30T04:16:49;16.20;99.90
33717;DHT22;20046;50.746;7.072;2022-07-30T04:19:21;16.20;99.90
33717;DHT22;20046;50.746;7.072;2022-07-30T04:21:48;16.20;99.90
33717;DHT22;20046;50.746;7.072;2022-07-30T04:24:15;16.20;99.90
33717;DHT22;20046;50.746;7.072;2022-07-30T04:26:41;16.20;99.90
33717;DHT22;20046;50.746;7.072;2022-07-30T04:29:09;16.20;99.90
33717;DHT22;20046;50.746;7.072;2022-07-30T04:31:35;16.20;99.90
33717;DHT22;20046;50.746;7.072;2022-07-30T04:34:02;16.20;99.90
33717;DHT22;20046;50.746;7.072;2022-07-30T04:36:29;16.30;99.90
33717;DHT22;20046;50.746;7.072;2022-07-30T04:38:55;16.20;99.90
33717;DHT22;20046;50.746;7.072;2022-07-30T04:41:21;16.30;99.90
33717;DHT22;20046;50.746;7.072;2022-07-30T04:43:47;16.30;99.90
33717;DHT22;20046;50.746;7.072;2022-07-30T04:46:13;16.30;99.90
33717;DHT22;20046;50.746;7.072;2022-07-30T04:48:38;16.20;99.90
33717;DHT22;20046;50.746;7.072;2022-07-30T04:51:08;16.20;99.90
33717;DHT22;20046;50.746;7.072;2022-07-30T04:53:36;16.20;99.90
33717;DHT22;20046;50.746;7.072;2022-07-30T04:56:03;16.20;99.90
33717;DHT22;20046;50.746;7.072;2022-07-30T04:58:31;16.20;99.90
33717;DHT22;20046;50.746;7.072;2022-07-30T05:00:58;16.20;99.90
33717;DHT22;20046;50.746;7.072;2022-07-30T05:03:25;16.30;99.90
33717;DHT22;20046;50.746;7.072;2022-07-30T05:05:51;16.30;99.90
33717;DHT22;20046;50.746;7.072;2022-07-30T05:08:18;16.30;99.90
33717;DHT22;20046;50.746;7.072;2022-07-30T05:10:44;16.30;99.90
33717;DHT22;20046;50.746;7.072;2022-07-30T05:13:13;16.40;99.90
33717;DHT22;20046;50.746;7.072;2022-07-30T05:15:39;16.40;99.90
33717;DHT22;20046;50.746;7.072;2022-07-30T05:18:05;16.50;99.90
33717;DHT22;20046;50.746;7.072;2022-07-30T05:20:31;16.60;99.90
33717;DHT22;20046;50.746;7.072;2022-07-30T05:22:57;16.70;99.90
33717;DHT22;20046;50.746;7.072;2022-07-30T05:25:22;16.70;99.90
33717;DHT22;20046;50.746;7.072;2022-07-30T05:27:48;16.80;99.90
33717;DHT22;20046;50.746;7.072;2022-07-30T05:30:15;16.80;99.90
33717;DHT22;20046;50.746;7.072;2022-07-30T05:32:41;16.90;99.90
33717;DHT22;20046;50.746;7.072;2022-07-30T05:35:08;17.00;99.90
33717;DHT22;20046;50.746;7.072;2022-07-30T05:37:33;17.00;99.90
33717;DHT22;20046;50.746;7.072;2022-07-30T05:39:59;17.10;99.90
33717;DHT22;20046;50.746;7.072;2022-07-30T05:42:25;17.10;99.90
33717;DHT22;20046;50.746;7.072;2022-07-30T05:44:50;17.20;99.90
33717;DHT22;20046;50.746;7.072;2022-07-30T05:47:16;17.30;99.90
33717;DHT22;20046;50.746;7.072;2022-07-30T05:49:45;17.40;99.90
33717;DHT22;20046;50.746;7.072;2022-07-30T05:52:10;17.40;99.90
33717;DHT22;20046;50.746;7.072;2022-07-30T05:54:36;17.50;99.90
33717;DHT22;20046;50.746;7.072;2022-07-30T05:57:02;17.50;99.90
33717;DHT22;20046;50.746;7.072;2022-07-30T05:59:28;17.50;99.90
33717;DHT22;20046;50.746;7.072;2022-07-30T06:01:53;17.60;99.90
33717;DHT22;20046;50.746;7.072;2022-07-30T06:04:19;17.60;99.90
33717;DHT22;20046;50.746;7.072;2022-07-30T06:06:44;17.70;99.90
33717;DHT22;20046;50.746;7.072;2022-07-30T06:09:10;17.70;99.90
33717;DHT22;20046;50.746;7.072;2022-07-30T06:11:36;17.70;99.90
33717;DHT22;20046;50.746;7.072;2022-07-30T06:14:01;17.80;99.90
33717;DHT22;20046;50.746;7.072;2022-07-30T06:16:27;17.80;99.90
33717;DHT22;20046;50.746;7.072;2022-07-30T06:18:53;17.90;99.90
33717;DHT22;20046;50.746;7.072;2022-07-30T06:21:18;17.90;99.90
33717;DHT22;20046;50.746;7.072;2022-07-30T06:23:44;18.00;99.90
33717;DHT22;20046;50.746;7.072;2022-07-30T06:26:09;18.10;99.90
33717;DHT22;20046;50.746;7.072;2022-07-30T06:28:35;18.10;99.90
33717;DHT22;20046;50.746;7.072;2022-07-30T06:31:01;18.20;99.90
33717;DHT22;20046;50.746;7.072;2022-07-30T06:33:27;18.20;99.90
33717;DHT22;20046;50.746;7.072;2022-07-30T06:35:52;18.30;99.90
33717;DHT22;20046;50.746;7.072;2022-07-30T06:38:18;18.30;99.90
33717;DHT22;20046;50.746;7.072;2022-07-30T06:40:43;18.30;99.90
33717;DHT22;20046;50.746;7.072;2022-07-30T06:43:09;18.40;99.90
33717;DHT22;20046;50.746;7.072;2022-07-30T06:45:35;18.50;99.90
33717;DHT22;20046;50.746;7.072;2022-07-30T06:48:00;18.50;99.90
33717;DHT22;20046;50.746;7.072;2022-07-30T06:50:26;18.50;99.90
33717;DHT22;20046;50.746;7.072;2022-07-30T06:52:52;18.60;99.90
33717;DHT22;20046;50.746;7.072;2022-07-30T06:55:18;18.70;99.90
33717;DHT22;20046;50.746;7.072;2022-07-30T06:57:43;18.70;99.90
33717;DHT22;20046;50.746;7.072;2022-07-30T07:00:09;18.80;99.90
33717;DHT22;20046;50.746;7.072;2022-07-30T07:02:35;18.90;99.90
33717;DHT22;20046;50.746;7.072;2022-07-30T07:05:01;19.00;99.90
33717;DHT22;20046;50.746;7.072;2022-07-30T07:07:26;19.00;99.90
33717;DHT22;20046;50.746;7.072;2022-07-30T07:09:52;19.00;99.90
33717;DHT22;20046;50.746;7.072;2022-07-30T07:12:18;19.10;99.90
33717;DHT22;20046;50.746;7.072;2022-07-30T07:14:43;19.10;99.90
33717;DHT22;20046;50.746;7.072;2022-07-30T07:17:09;19.20;99.90
33717;DHT22;20046;50.746;7.072;2022-07-30T07:19:35;19.30;99.90
33717;DHT22;20046;50.746;7.072;2022-07-30T07:22:02;19.40;99.90
33717;DHT22;20046;50.746;7.072;2022-07-30T07:24:27;19.50;99.90
33717;DHT22;20046;50.746;7.072;2022-07-30T07:26:53;19.60;99.90
33717;DHT22;20046;50.746;7.072;2022-07-30T07:29:19;19.60;99.90
33717;DHT22;20046;50.746;7.072;2022-07-30T07:31:44;19.70;99.90
33717;DHT22;20046;50.746;7.072;2022-07-30T07:34:10;19.80;99.90
33717;DHT22;20046;50.746;7.072;2022-07-30T07:36:36;20.00;99.90
33717;DHT22;20046;50.746;7.072;2022-07-30T07:39:02;20.20;99.90
33717;DHT22;20046;50.746;7.072;2022-07-30T07:41:28;20.30;99.90
33717;DHT22;20046;50.746;7.072;2022-07-30T07:43:53;20.30;99.90
33717;DHT22;20046;50.746;7.072;2022-07-30T07:46:19;20.40;99.90
33717;DHT22;20046;50.746;7.072;2022-07-30T07:48:45;20.50;99.90
33717;DHT22;20046;50.746;7.072;2022-07-30T07:51:10;20.70;99.90
33717;DHT22;20046;50.746;7.072;2022-07-30T07:53:36;20.90;99.90
33717;DHT22;20046;50.746;7.072;2022-07-30T07:56:01;21.10;99.90
33717;DHT22;20046;50.746;7.072;2022-07-30T07:58:27;21.30;99.90
33717;DHT22;20046;50.746;7.072;2022-07-30T08:00:53;21.60;99.90
33717;DHT22;20046;50.746;7.072;2022-07-30T08:03:19;21.90;99.90
33717;DHT22;20046;50.746;7.072;2022-07-30T08:05:44;22.10;99.90
33717;DHT22;20046;50.746;7.072;2022-07-30T08:08:11;22.20;99.90
33717;DHT22;20046;50.746;7.072;2022-07-30T08:10:36;22.30;99.90
33717;DHT22;20046;50.746;7.072;2022-07-30T08:13:02;22.20;99.90
33717;DHT22;20046;50.746;7.072;2022-07-30T08:15:30;22.00;99.90
33717;DHT22;20046;50.746;7.072;2022-07-30T08:17:56;22.00;99.90
33717;DHT22;20046;50.746;7.072;2022-07-30T08:20:21;22.10;99.90
33717;DHT22;20046;50.746;7.072;2022-07-30T08:22:49;22.10;99.90
33717;DHT22;20046;50.746;7.072;2022-07-30T08:25:15;22.40;99.90
33717;DHT22;20046;50.746;7.072;2022-07-30T08:27:43;22.90;99.90
33717;DHT22;20046;50.746;7.072;2022-07-30T08:30:09;23.60;99.90
33717;DHT22;20046;50.746;7.072;2022-07-30T08:32:35;24.50;99.90
33717;DHT22;20046;50.746;7.072;2022-07-30T08:35:02;25.30;99.20
33717;DHT22;20046;50.746;7.072;2022-07-30T08:37:28;26.10;96.50
33717;DHT22;20046;50.746;7.072;2022-07-30T08:39:54;26.60;95.20
33717;DHT22;20046;50.746;7.072;2022-07-30T08:42:21;27.10;94.40
33717;DHT22;20046;50.746;7.072;2022-07-30T08:44:47;27.60;93.60
33717;DHT22;20046;50.746;7.072;2022-07-30T08:47:16;27.80;92.20
33717;DHT22;20046;50.746;7.072;2022-07-30T08:49:44;27.50;91.80
33717;DHT22;20046;50.746;7.072;2022-07-30T08:52:10;27.70;91.30
33717;DHT22;20046;50.746;7.072;2022-07-30T08:54:37;27.90;91.00
33717;DHT22;20046;50.746;7.072;2022-07-30T08:57:03;28.30;90.60
33717;DHT22;20046;50.746;7.072;2022-07-30T08:59:30;27.80;90.50
33717;DHT22;20046;50.746;7.072;2022-07-30T09:01:57;27.70;90.30
33717;DHT22;20046;50.746;7.072;2022-07-30T09:04:23;27.80;90.10
33717;DHT22;20046;50.746;7.072;2022-07-30T09:06:48;28.20;89.70
33717;DHT22;20046;50.746;7.072;2022-07-30T09:09:15;28.80;88.20
33717;DHT22;20046;50.746;7.072;2022-07-30T09:11:40;29.30;86.80
33717;DHT22;20046;50.746;7.072;2022-07-30T09:14:11;29.40;84.90
33717;DHT22;20046;50.746;7.072;2022-07-30T09:16:38;29.00;84.70
33717;DHT22;20046;50.746;7.072;2022-07-30T09:19:17;29.30;84.30
33717;DHT22;20046;50.746;7.072;2022-07-30T09:21:58;29.20;82.90
33717;DHT22;20046;50.746;7.072;2022-07-30T09:24:24;29.40;82.70
33717;DHT22;20046;50.746;7.072;2022-07-30T09:27:02;29.70;81.60
33717;DHT22;20046;50.746;7.072;2022-07-30T09:29:31;30.30;80.00
33717;DHT22;20046;50.746;7.072;2022-07-30T09:32:15;30.60;77.70
33717;DHT22;20046;50.746;7.072;2022-07-30T09:34:41;30.40;76.40
33717;DHT22;20046;50.746;7.072;2022-07-30T09:39:37;30.50;76.80
33717;DHT22;20046;50.746;7.072;2022-07-30T09:42:03;29.70;77.70
33717;DHT22;20046;50.746;7.072;2022-07-30T09:44:40;29.10;78.90
33717;DHT22;20046;50.746;7.072;2022-07-30T09:47:06;28.50;79.50
33717;DHT22;20046;50.746;7.072;2022-07-30T09:49:32;28.20;78.60
33717;DHT22;20046;50.746;7.072;2022-07-30T09:51:58;27.90;78.50
33717;DHT22;20046;50.746;7.072;2022-07-30T09:54:25;28.00;79.20
33717;DHT22;20046;50.746;7.072;2022-07-30T09:57:08;28.20;79.70
33717;DHT22;20046;50.746;7.072;2022-07-30T09:59:34;28.60;79.70
33717;DHT22;20046;50.746;7.072;2022-07-30T10:02:00;28.30;79.30
33717;DHT22;20046;50.746;7.072;2022-07-30T10:04:31;28.20;79.30
33717;DHT22;20046;50.746;7.072;2022-07-30T10:06:58;28.40;77.80
33717;DHT22;20046;50.746;7.072;2022-07-30T10:09:32;28.20;78.10
33717;DHT22;20046;50.746;7.072;2022-07-30T10:12:00;28.10;79.30
33717;DHT22;20046;50.746;7.072;2022-07-30T10:14:36;27.90;79.90
33717;DHT22;20046;50.746;7.072;2022-07-30T10:17:03;27.70;80.80
33717;DHT22;20046;50.746;7.072;2022-07-30T10:19:31;27.70;80.90
33717;DHT22;20046;50.746;7.072;2022-07-30T10:21:57;28.50;80.60
33717;DHT22;20046;50.746;7.072;2022-07-30T10:24:24;29.40;77.50
33717;DHT22;20046;50.746;7.072;2022-07-30T10:26:52;29.80;75.30
33717;DHT22;20046;50.746;7.072;2022-07-30T10:29:19;29.50;76.10
33717;DHT22;20046;50.746;7.072;2022-07-30T10:31:47;30.00;75.30
33717;DHT22;20046;50.746;7.072;2022-07-30T10:34:14;31.00;73.50
33717;DHT22;20046;50.746;7.072;2022-07-30T10:36:47;31.30;70.70
33717;DHT22;20046;50.746;7.072;2022-07-30T10:39:19;31.50;69.90
33717;DHT22;20046;50.746;7.072;2022-07-30T10:47:19;32.70;65.00
33717;DHT22;20046;50.746;7.072;2022-07-30T10:50:10;33.20;63.30
33717;DHT22;20046;50.746;7.072;2022-07-30T10:55:12;33.90;61.30
33717;DHT22;20046;50.746;7.072;2022-07-30T10:58:09;34.10;61.20
33717;DHT22;20046;50.746;7.072;2022-07-30T11:00:59;34.30;58.70
33717;DHT22;20046;50.746;7.072;2022-07-30T11:03:26;34.70;57.40
33717;DHT22;20046;50.746;7.072;2022-07-30T11:08:42;35.40;56.20
33717;DHT22;20046;50.746;7.072;2022-07-30T11:13:59;35.60;54.70
33717;DHT22;20046;50.746;7.072;2022-07-30T11:19:16;35.80;53.30
33717;DHT22;20046;50.746;7.072;2022-07-30T11:21:44;35.90;52.90
33717;DHT22;20046;50.746;7.072;2022-07-30T11:27:08;35.70;52.00
33717;DHT22;20046;50.746;7.072;2022-07-30T11:29:35;35.70;51.40
33717;DHT22;20046;50.746;7.072;2022-07-30T11:32:40;35.80;50.80
33717;DHT22;20046;50.746;7.072;2022-07-30T11:40:21;37.00;48.80
33717;DHT22;20046;50.746;7.072;2022-07-30T11:42:48;37.20;47.60
33717;DHT22;20046;50.746;7.072;2022-07-30T11:47:49;37.60;45.80
33717;DHT22;20046;50.746;7.072;2022-07-30T11:50:20;37.90;44.60
33717;DHT22;20046;50.746;7.072;2022-07-30T11:55:44;38.10;44.40
33717;DHT22;20046;50.746;7.072;2022-07-30T11:58:12;38.20;44.70
33717;DHT22;20046;50.746;7.072;2022-07-30T12:00:47;38.60;45.10
33717;DHT22;20046;50.746;7.072;2022-07-30T12:03:14;38.80;45.80
33717;DHT22;20046;50.746;7.072;2022-07-30T12:05:41;38.70;45.90
33717;DHT22;20046;50.746;7.072;2022-07-30T12:08:08;38.50;45.30
33717;DHT22;20046;50.746;7.072;2022-07-30T12:10:34;38.80;45.00
33717;DHT22;20046;50.746;7.072;2022-07-30T12:13:15;38.70;43.30
33717;DHT22;20046;50.746;7.072;2022-07-30T12:15:43;38.70;43.20
33717;DHT22;20046;50.746;7.072;2022-07-30T12:18:10;39.20;44.20
33717;DHT22;20046;50.746;7.072;2022-07-30T12:20:39;39.50;43.40
33717;DHT22;20046;50.746;7.072;2022-07-30T12:23:10;39.00;43.00
33717;DHT22;20046;50.746;7.072;2022-07-30T12:25:41;38.20;43.60
33717;DHT22;20046;50.746;7.072;2022-07-30T12:28:10;38.30;43.80
33717;DHT22;20046;50.746;7.072;2022-07-30T12:30:39;38.40;44.60
33717;DHT22;20046;50.746;7.072;2022-07-30T12:33:06;38.60;44.90
33717;DHT22;20046;50.746;7.072;2022-07-30T12:36:01;38.90;44.00
33717;DHT22;20046;50.746;7.072;2022-07-30T12:38:27;39.50;42.60
33717;DHT22;20046;50.746;7.072;2022-07-30T12:46:22;38.80;42.70
33717;DHT22;20046;50.746;7.072;2022-07-30T12:51:21;38.10;43.70
33717;DHT22;20046;50.746;7.072;2022-07-30T12:53:47;37.90;41.70
33717;DHT22;20046;50.746;7.072;2022-07-30T12:58:40;38.40;41.50
33717;DHT22;20046;50.746;7.072;2022-07-30T13:01:07;39.20;41.50
33717;DHT22;20046;50.746;7.072;2022-07-30T13:03:33;39.80;40.80
33717;DHT22;20046;50.746;7.072;2022-07-30T13:06:19;40.50;40.40
33717;DHT22;20046;50.746;7.072;2022-07-30T13:11:19;41.60;38.80
33717;DHT22;20046;50.746;7.072;2022-07-30T13:13:46;42.10;38.20
33717;DHT22;20046;50.746;7.072;2022-07-30T13:16:12;42.30;38.10
33717;DHT22;20046;50.746;7.072;2022-07-30T13:18:38;42.90;38.40
33717;DHT22;20046;50.746;7.072;2022-07-30T13:21:05;43.20;37.40
33717;DHT22;20046;50.746;7.072;2022-07-30T13:23:36;43.10;37.20
33717;DHT22;20046;50.746;7.072;2022-07-30T13:26:03;43.40;37.20
33717;DHT22;20046;50.746;7.072;2022-07-30T13:28:29;43.20;36.60
33717;DHT22;20046;50.746;7.072;2022-07-30T13:30:56;43.00;37.50
33717;DHT22;20046;50.746;7.072;2022-07-30T13:33:22;43.00;37.60
33717;DHT22;20046;50.746;7.072;2022-07-30T13:35:48;42.70;37.30
33717;DHT22;20046;50.746;7.072;2022-07-30T13:38:13;42.70;37.40
33717;DHT22;20046;50.746;7.072;2022-07-30T13:40:40;42.20;36.60
33717;DHT22;20046;50.746;7.072;2022-07-30T13:43:06;40.70;39.10
33717;DHT22;20046;50.746;7.072;2022-07-30T13:45:33;38.20;41.10
33717;DHT22;20046;50.746;7.072;2022-07-30T13:47:59;36.20;43.10
33717;DHT22;20046;50.746;7.072;2022-07-30T13:50:24;35.00;45.80
33717;DHT22;20046;50.746;7.072;2022-07-30T13:52:50;34.00;46.00
33717;DHT22;20046;50.746;7.072;2022-07-30T13:55:16;33.20;47.00
33717;DHT22;20046;50.746;7.072;2022-07-30T13:57:42;32.40;48.50
33717;DHT22;20046;50.746;7.072;2022-07-30T14:00:11;31.70;48.80
33717;DHT22;20046;50.746;7.072;2022-07-30T14:02:37;31.30;49.90
33717;DHT22;20046;50.746;7.072;2022-07-30T14:05:03;30.90;50.00
33717;DHT22;20046;50.746;7.072;2022-07-30T14:07:35;30.70;50.60
33717;DHT22;20046;50.746;7.072;2022-07-30T14:10:01;30.70;51.00
33717;DHT22;20046;50.746;7.072;2022-07-30T14:12:27;30.80;50.70
33717;DHT22;20046;50.746;7.072;2022-07-30T14:14:52;30.80;50.30
33717;DHT22;20046;50.746;7.072;2022-07-30T14:17:18;30.90;51.00
33717;DHT22;20046;50.746;7.072;2022-07-30T14:19:43;31.00;50.80
33717;DHT22;20046;50.746;7.072;2022-07-30T14:22:09;31.00;50.20
33717;DHT22;20046;50.746;7.072;2022-07-30T14:24:35;30.80;50.70
33717;DHT22;20046;50.746;7.072;2022-07-30T14:27:00;30.80;51.30
33717;DHT22;20046;50.746;7.072;2022-07-30T14:29:26;30.70;51.90
33717;DHT22;20046;50.746;7.072;2022-07-30T14:31:52;30.60;52.30
33717;DHT22;20046;50.746;7.072;2022-07-30T14:34:18;30.50;52.30
33717;DHT22;20046;50.746;7.072;2022-07-30T14:36:43;30.40;51.90
33717;DHT22;20046;50.746;7.072;2022-07-30T14:39:09;30.40;53.00
33717;DHT22;20046;50.746;7.072;2022-07-30T14:41:36;30.30;52.10
33717;DHT22;20046;50.746;7.072;2022-07-30T14:44:03;30.20;52.40
33717;DHT22;20046;50.746;7.072;2022-07-30T14:46:29;30.20;51.80
33717;DHT22;20046;50.746;7.072;2022-07-30T14:48:55;30.10;52.80
33717;DHT22;20046;50.746;7.072;2022-07-30T14:51:21;30.10;52.30
33717;DHT22;20046;50.746;7.072;2022-07-30T14:53:47;30.00;52.40
33717;DHT22;20046;50.746;7.072;2022-07-30T14:56:15;30.10;53.20
33717;DHT22;20046;50.746;7.072;2022-07-30T14:58:40;30.10;53.10
33717;DHT22;20046;50.746;7.072;2022-07-30T15:01:06;30.10;52.50
33717;DHT22;20046;50.746;7.072;2022-07-30T15:03:35;30.10;52.50
33717;DHT22;20046;50.746;7.072;2022-07-30T15:06:01;30.10;53.20
33717;DHT22;20046;50.746;7.072;2022-07-30T15:08:27;30.00;52.10
33717;DHT22;20046;50.746;7.072;2022-07-30T15:10:53;29.80;52.60
33717;DHT22;20046;50.746;7.072;2022-07-30T15:13:19;29.80;53.10
33717;DHT22;20046;50.746;7.072;2022-07-30T15:15:45;29.80;53.10
33717;DHT22;20046;50.746;7.072;2022-07-30T15:18:11;29.80;52.70
33717;DHT22;20046;50.746;7.072;2022-07-30T15:20:36;29.80;53.20
33717;DHT22;20046;50.746;7.072;2022-07-30T15:23:02;29.70;52.40
33717;DHT22;20046;50.746;7.072;2022-07-30T15:25:28;29.60;52.90
33717;DHT22;20046;50.746;7.072;2022-07-30T15:27:53;29.50;53.90
33717;DHT22;20046;50.746;7.072;2022-07-30T15:30:19;29.40;53.60
33717;DHT22;20046;50.746;7.072;2022-07-30T15:32:45;29.20;54.10
33717;DHT22;20046;50.746;7.072;2022-07-30T15:35:10;29.20;54.40
33717;DHT22;20046;50.746;7.072;2022-07-30T15:37:37;29.20;53.80
33717;DHT22;20046;50.746;7.072;2022-07-30T15:40:03;29.20;54.20
33717;DHT22;20046;50.746;7.072;2022-07-30T15:42:29;29.20;55.00
33717;DHT22;20046;50.746;7.072;2022-07-30T15:44:56;29.20;54.80
33717;DHT22;20046;50.746;7.072;2022-07-30T15:47:21;29.20;54.90
33717;DHT22;20046;50.746;7.072;2022-07-30T15:49:47;29.30;54.50
33717;DHT22;20046;50.746;7.072;2022-07-30T15:52:13;29.20;54.20
33717;DHT22;20046;50.746;7.072;2022-07-30T15:54:39;29.30;54.50
33717;DHT22;20046;50.746;7.072;2022-07-30T15:57:05;29.30;55.00
33717;DHT22;20046;50.746;7.072;2022-07-30T15:59:30;29.20;54.80
33717;DHT22;20046;50.746;7.072;2022-07-30T16:01:56;29.10;55.00
33717;DHT22;20046;50.746;7.072;2022-07-30T16:04:22;29.00;54.70
33717;DHT22;20046;50.746;7.072;2022-07-30T16:06:48;28.80;55.20
33717;DHT22;20046;50.746;7.072;2022-07-30T16:09:17;28.80;55.40
33717;DHT22;20046;50.746;7.072;2022-07-30T16:11:42;28.70;56.00
33717;DHT22;20046;50.746;7.072;2022-07-30T16:14:08;28.50;55.90
33717;DHT22;20046;50.746;7.072;2022-07-30T16:16:34;28.40;56.40
33717;DHT22;20046;50.746;7.072;2022-07-30T16:19:00;28.40;56.70
33717;DHT22;20046;50.746;7.072;2022-07-30T16:21:26;28.40;56.90